This is the latest recevied weather packets stored in our database for station/object OH6GPB-4. If no packets are shown the sender has not sent any weather packets the latest 1 day(s).
| Time | Temp. | Humidity | Pressure | Rain* | Wind** | Luminosity | Snow |
|---|---|---|---|---|---|---|---|
| 1778095052 | 5° C | 65% | 1010.6 hPa | 0 mm | - | 0 W/m² | - |
| 1778087854 | 7.22° C | 52% | 1009.9 hPa | 0 mm | - | 90 W/m² | - |
| 1778086056 | 7.22° C | 53% | 1009.6 hPa | 0 mm | - | 221 W/m² | - |
| 1778077052 | 7.78° C | 52% | 1009 hPa | 0 mm | - | 44 W/m² | - |
| 1778073456 | 7.78° C | 51% | 1008.8 hPa | 0 mm | - | 601 W/m² | - |
| 1778071641 | 7.78° C | 48% | 1008.5 hPa | 0 mm | - | 650 W/m² | - |
| 1778069855 | 7.22° C | 50% | 1008.6 hPa | 0 mm | - | 652 W/m² | - |
| 1778066252 | 6.11° C | 58% | 1008 hPa | 0 mm | - | 575 W/m² | - |
| 1778064448 | 5.56° C | 59% | 1007.9 hPa | 0 mm | - | 443 W/m² | - |
| 1778060843 | 5.56° C | 61% | 1007.1 hPa | 0 mm | - | 339 W/m² | - |
| 1778059041 | 6.11° C | 59% | 1006.8 hPa | 0 mm | - | 531 W/m² | - |
| 1778057245 | 5.56° C | 59% | 1006.7 hPa | 0 mm | - | 765 W/m² | - |
| 1778053645 | 5° C | 62% | 1005.9 hPa | 0 mm | - | 596 W/m² | - |
| 1778051851 | 5° C | 62% | 1005.6 hPa | 0 mm | - | 545 W/m² | - |
| 1778048248 | 3.89° C | 63% | 1004.9 hPa | 0 mm | - | 431 W/m² | - |
| 1778044654 | 3.33° C | 65% | 1004.3 hPa | 0 mm | - | 308 W/m² | - |
| 1778042851 | 3.89° C | 65% | 1003.9 hPa | 0 mm | - | 244 W/m² | - |
| 1778041052 | 3.33° C | 67% | 1003.8 hPa | 0 mm | - | 40 W/m² | - |
| 1778039243 | 3.33° C | 68% | 1003.3 hPa | 0 mm | - | 72 W/m² | - |
| 1778037443 | 2.78° C | 70% | 1003.2 hPa | 0 mm | - | 26 W/m² | - |
| 1778035649 | 2.78° C | 71% | 1002.9 hPa | 0 mm | - | 25 W/m² | - |
| 1778033860 | 2.78° C | 71% | 1002.7 hPa | 0 mm | - | 9 W/m² | - |
| 1778030256 | 3.33° C | 69% | 1002.2 hPa | 0 mm | - | 0 W/m² | - |
| 1778028447 | 3.33° C | 68% | 1002.1 hPa | 0 mm | - | 0 W/m² | - |
| 1778026646 | 3.89° C | 66% | 1001.7 hPa | 0 mm | - | 0 W/m² | - |
* Rain latest hour (hover to see other rain measurements)
** Current wind speed in m/s (hover to see current wind gust speed)